Time;durP1;ratioP1;P1;durP2;ratioP2;P2;SDS_P1;SDS_P2;PMS_P1;PMS_P2;Temp;Humidity;BMP_temperature;BMP_pressure;BME280_temperature;BME280_humidity;BME280_pressure;Samples;Min_cycle;Max_cycle;Signal;HPM_P1;HPM_P2
2022/01/16 00:04:34;;;;;;;51.63;18.07;;;-0.10;99.70;;;;;;5031814;28;20443;-67
2022/01/16 00:07:04;;;;;;;53.40;18.47;;;-0.10;99.70;;;;;;5032385;28;20499;-67
2022/01/16 00:09:32;;;;;;;68.67;19.33;;;0.30;99.70;;;;;;5032229;28;20459;-67
2022/01/16 00:12:00;;;;;;;57.80;18.60;;;0.10;99.70;;;;;;5032445;28;20804;-66
2022/01/16 00:14:30;;;;;;;59.70;19.43;;;0.00;99.70;;;;;;5032353;28;20826;-67
2022/01/16 00:16:57;;;;;;;53.93;18.70;;;-0.10;99.70;;;;;;5032157;28;20912;-65
2022/01/16 00:19:24;;;;;;;60.27;19.40;;;0.00;99.70;;;;;;5031765;28;20451;-66
2022/01/16 00:21:51;;;;;;;66.40;21.00;;;-0.10;99.70;;;;;;5031196;28;20558;-68
2022/01/16 00:24:18;;;;;;;71.87;21.53;;;-0.10;99.70;;;;;;5032342;28;20440;-66
2022/01/16 00:26:46;;;;;;;75.00;20.70;;;-0.20;99.70;;;;;;5032028;28;21027;-66
2022/01/16 00:29:13;;;;;;;58.27;19.80;;;-0.20;99.70;;;;;;5031574;28;20448;-66
2022/01/16 00:31:41;;;;;;;56.80;18.13;;;-0.20;99.70;;;;;;5032013;28;20464;-68
2022/01/16 00:34:09;;;;;;;58.27;18.13;;;-0.20;99.70;;;;;;5031917;28;20866;-69
2022/01/16 00:36:36;;;;;;;49.17;17.23;;;-0.20;99.70;;;;;;5031799;28;20992;-67
2022/01/16 00:39:04;;;;;;;53.93;18.27;;;-0.20;99.70;;;;;;5031480;28;20440;-65
2022/01/16 00:41:32;;;;;;;46.00;17.10;;;0.80;99.70;;;;;;5031765;28;20857;-65
2022/01/16 00:44:00;;;;;;;51.50;18.10;;;1.20;99.70;;;;;;5031667;28;20949;-67
2022/01/16 00:46:26;;;;;;;58.60;17.73;;;1.40;99.70;;;;;;5031648;28;20488;-66
2022/01/16 00:48:53;;;;;;;56.37;18.33;;;1.20;99.70;;;;;;5031345;28;20464;-66
2022/01/16 00:51:20;;;;;;;46.60;17.97;;;0.70;99.70;;;;;;5031845;28;20445;-66
2022/01/16 00:53:47;;;;;;;192.50;22.77;;;0.50;99.70;;;;;;5031617;28;20638;-65
2022/01/16 00:56:14;;;;;;;83.30;20.07;;;0.10;99.70;;;;;;5031599;28;20469;-66
2022/01/16 00:58:41;;;;;;;111.17;21.13;;;0.00;99.70;;;;;;5031036;28;20805;-65
2022/01/16 01:01:10;;;;;;;52.30;18.13;;;0.00;99.70;;;;;;5031485;28;20490;-65
2022/01/16 01:03:37;;;;;;;50.80;17.20;;;0.90;99.70;;;;;;5031420;28;20499;-65
2022/01/16 01:06:05;;;;;;;49.03;16.87;;;1.00;99.70;;;;;;5031367;28;20968;-67
2022/01/16 01:08:31;;;;;;;55.87;18.37;;;1.20;99.70;;;;;;5030993;28;20937;-66
2022/01/16 01:11:00;;;;;;;62.30;20.40;;;0.90;99.70;;;;;;5031514;28;20444;-66
2022/01/16 01:13:33;;;;;;;65.10;19.23;;;0.60;99.70;;;;;;5031519;28;20540;-67
2022/01/16 01:16:03;;;;;;;67.60;20.37;;;0.50;99.70;;;;;;5031418;28;20449;-66
2022/01/16 01:18:33;;;;;;;84.17;19.60;;;1.00;99.70;;;;;;5031162;28;20449;-67
2022/01/16 01:21:02;;;;;;;63.07;18.03;;;0.60;99.70;;;;;;5031266;28;20499;-66
2022/01/16 01:23:29;;;;;;;71.33;18.10;;;0.50;99.70;;;;;;5030674;28;20480;-67
2022/01/16 01:25:56;;;;;;;156.00;20.80;;;0.40;99.70;;;;;;5031228;28;20449;-66
2022/01/16 01:28:23;;;;;;;61.37;18.10;;;0.20;99.70;;;;;;5030701;28;20967;-65
2022/01/16 01:30:50;;;;;;;90.47;18.90;;;0.30;99.70;;;;;;5031150;28;20444;-65
2022/01/16 01:33:19;;;;;;;188.00;22.23;;;0.40;99.70;;;;;;5031478;28;20448;-66
2022/01/16 01:35:48;;;;;;;168.43;20.60;;;0.10;99.70;;;;;;5035269;28;20452;-67
2022/01/16 01:38:17;;;;;;;148.80;20.97;;;0.00;99.70;;;;;;5035085;28;20445;-65
2022/01/16 01:40:44;;;;;;;74.17;17.80;;;-0.10;99.70;;;;;;5035244;28;20531;-67
2022/01/16 01:51:31;;;;;;;55.30;18.10;;;0.00;99.70;;;;;;5035099;28;20482;-65
2022/01/16 01:53:58;;;;;;;65.43;18.50;;;0.00;99.70;;;;;;5034986;28;20496;-65
2022/01/16 01:56:26;;;;;;;107.80;20.13;;;0.00;99.70;;;;;;5034787;28;20472;-65
2022/01/16 01:58:55;;;;;;;110.53;20.10;;;0.00;99.70;;;;;;5034362;28;20988;-66
2022/01/16 02:01:22;;;;;;;61.10;20.53;;;0.00;99.70;;;;;;5034718;28;20444;-66
2022/01/16 02:03:49;;;;;;;50.53;17.90;;;-0.10;99.70;;;;;;5034836;28;20484;-65
2022/01/16 02:06:18;;;;;;;114.67;28.60;;;0.10;99.70;;;;;;5034562;28;20510;-65
2022/01/16 02:08:50;;;;;;;88.43;24.50;;;0.60;99.70;;;;;;5034294;28;20440;-66
2022/01/16 02:11:18;;;;;;;66.17;19.80;;;0.60;99.70;;;;;;5034661;28;20952;-65
2022/01/16 02:13:53;;;;;;;49.40;17.10;;;0.30;99.70;;;;;;5034618;28;20828;-65
2022/01/16 02:30:56;;;;;;;61.13;18.40;;;0.00;99.70;;;;;;5034392;28;20424;-66
2022/01/16 02:34:28;;;;;;;90.60;19.90;;;0.40;99.70;;;;;;5034081;28;20437;-67
2022/01/16 02:36:13;;;;;;;49.87;18.20;;;0.30;99.70;;;;;;5033995;28;20867;-66
2022/01/16 02:38:41;;;;;;;70.17;19.20;;;0.40;99.70;;;;;;5033678;28;20942;-66
2022/01/16 02:41:07;;;;;;;88.90;20.40;;;0.70;99.70;;;;;;5034057;28;20451;-67
2022/01/16 02:43:35;;;;;;;74.13;21.93;;;0.20;99.70;;;;;;5034069;28;20902;-66
2022/01/16 02:48:54;;;;;;;57.07;18.67;;;0.70;99.70;;;;;;5032494;28;20432;-67
2022/01/16 02:51:24;;;;;;;50.77;18.50;;;0.70;99.70;;;;;;5033805;28;20444;-67
2022/01/16 02:53:53;;;;;;;56.37;17.20;;;0.90;99.70;;;;;;5033797;28;20448;-67
2022/01/16 02:56:21;;;;;;;61.87;17.53;;;0.70;99.70;;;;;;5033756;28;20460;-67
2022/01/16 02:58:49;;;;;;;54.20;16.67;;;0.80;99.70;;;;;;5033426;28;20444;-66
2022/01/16 03:01:16;;;;;;;58.50;16.80;;;0.50;99.70;;;;;;5033656;28;20437;-67
2022/01/16 03:03:43;;;;;;;79.77;17.83;;;0.70;99.70;;;;;;5033666;28;20487;-66
2022/01/16 03:06:10;;;;;;;57.50;17.00;;;0.30;99.70;;;;;;5033530;28;20605;-66
2022/01/16 03:08:37;;;;;;;84.43;18.83;;;0.10;99.70;;;;;;5033147;28;20929;-66
2022/01/16 03:11:15;;;;;;;73.87;17.60;;;0.50;99.70;;;;;;5033436;28;20455;-66
2022/01/16 03:13:47;;;;;;;55.47;15.10;;;0.20;99.70;;;;;;5033404;28;20445;-66
2022/01/16 03:16:13;;;;;;;59.40;15.53;;;0.80;99.70;;;;;;5033365;28;21087;-66
2022/01/16 03:24:08;;;;;;;67.93;16.37;;;0.70;99.70;;;;;;5033278;28;20479;-66
2022/01/16 03:26:36;;;;;;;48.67;16.20;;;0.30;99.70;;;;;;5033060;28;20475;-67
2022/01/16 03:29:04;;;;;;;45.10;14.60;;;0.60;99.70;;;;;;5032718;28;20459;-66
2022/01/16 03:31:30;;;;;;;83.17;15.70;;;0.90;99.70;;;;;;5033113;28;20872;-65
2022/01/16 03:33:57;;;;;;;48.73;14.70;;;0.40;99.70;;;;;;5033103;28;20499;-66
2022/01/16 03:36:24;;;;;;;68.23;15.80;;;-0.10;99.70;;;;;;5032999;28;20518;-66
2022/01/16 03:38:51;;;;;;;51.57;15.90;;;0.20;99.70;;;;;;5032551;28;20448;-66
2022/01/16 03:41:17;;;;;;;73.57;18.37;;;0.10;99.70;;;;;;5033156;28;20452;-66
2022/01/16 03:43:46;;;;;;;87.60;17.23;;;-0.20;99.70;;;;;;5033148;28;20481;-66
2022/01/16 03:46:12;;;;;;;53.50;15.47;;;-0.20;99.70;;;;;;5032702;28;20484;-66
2022/01/16 03:48:39;;;;;;;44.27;14.50;;;0.40;99.70;;;;;;5032405;28;20452;-67
2022/01/16 03:51:06;;;;;;;43.13;14.50;;;0.50;99.70;;;;;;5032861;28;20874;-66
2022/01/16 03:53:32;;;;;;;51.77;15.87;;;0.50;99.70;;;;;;5032695;28;20452;-66
2022/01/16 03:55:59;;;;;;;75.03;16.87;;;0.10;99.70;;;;;;5031975;28;20444;-64
2022/01/16 03:58:26;;;;;;;79.67;15.77;;;-0.10;99.70;;;;;;5032153;28;20828;-64
2022/01/16 04:00:54;;;;;;;67.97;16.60;;;-0.30;99.70;;;;;;5032560;28;20457;-66
2022/01/16 04:03:20;;;;;;;57.03;15.50;;;-0.20;99.70;;;;;;5032429;28;20484;-66
2022/01/16 04:05:47;;;;;;;40.83;14.67;;;-0.40;99.70;;;;;;5032463;28;20802;-66
2022/01/16 04:08:14;;;;;;;35.13;13.27;;;0.40;99.70;;;;;;5032042;28;20448;-66
2022/01/16 04:10:40;;;;;;;40.90;14.00;;;0.90;99.70;;;;;;5032374;28;20475;-66
2022/01/16 04:13:08;;;;;;;49.17;14.00;;;0.80;99.70;;;;;;5032478;28;20503;-65
2022/01/16 04:15:35;;;;;;;35.33;12.53;;;0.50;99.70;;;;;;5032278;28;20471;-67
2022/01/16 04:18:06;;;;;;;43.53;14.37;;;0.70;99.70;;;;;;5031729;28;20893;-67
2022/01/16 04:20:34;;;;;;;35.50;13.80;;;0.70;99.70;;;;;;5032237;28;20448;-67
2022/01/16 04:23:02;;;;;;;37.07;13.63;;;0.70;99.70;;;;;;5031723;28;20472;-66
2022/01/16 04:25:28;;;;;;;43.57;14.83;;;1.40;99.70;;;;;;5032070;28;20448;-66
2022/01/16 04:27:55;;;;;;;42.20;14.60;;;1.10;99.70;;;;;;5031583;28;20468;-67
2022/01/16 04:30:22;;;;;;;57.93;14.63;;;0.20;99.70;;;;;;5032086;28;20441;-67
2022/01/16 04:32:49;;;;;;;61.93;14.43;;;0.20;99.70;;;;;;5031917;28;20440;-65
2022/01/16 04:35:17;;;;;;;48.07;14.03;;;-0.10;99.70;;;;;;5032016;28;20445;-67
2022/01/16 04:37:44;;;;;;;46.97;14.57;;;-0.40;99.70;;;;;;5031562;28;20473;-64
2022/01/16 04:40:12;;;;;;;53.87;14.10;;;-0.60;99.70;;;;;;5032022;28;20452;-66
2022/01/16 04:45:23;;;;;;;48.23;14.50;;;-0.90;99.70;;;;;;5032152;28;20427;-65
2022/01/16 04:47:51;;;;;;;42.20;15.23;;;-1.00;99.70;;;;;;5031421;28;20817;-65
2022/01/16 04:50:21;;;;;;;67.73;14.43;;;-0.40;99.70;;;;;;5031732;28;20448;-65
2022/01/16 04:52:49;;;;;;;64.23;13.80;;;-0.40;99.70;;;;;;5031567;28;20474;-64
2022/01/16 04:55:17;;;;;;;57.43;14.77;;;-0.80;99.70;;;;;;5031499;28;20467;-64
2022/01/16 04:57:44;;;;;;;49.70;13.83;;;-1.00;99.70;;;;;;5031301;28;20476;-64
2022/01/16 05:00:14;;;;;;;55.77;13.33;;;-1.10;99.70;;;;;;5031781;28;20440;-64
2022/01/16 05:02:41;;;;;;;69.57;16.93;;;-1.30;99.70;;;;;;5031470;28;20988;-65
2022/01/16 05:05:09;;;;;;;42.80;13.93;;;-1.30;99.70;;;;;;5031526;28;20476;-65
2022/01/16 05:07:37;;;;;;;48.67;14.13;;;-1.10;99.70;;;;;;5030706;28;20990;-65
2022/01/16 05:10:06;;;;;;;37.67;13.77;;;-1.10;99.70;;;;;;5030672;28;20445;-64
2022/01/16 05:12:35;;;;;;;40.27;13.20;;;-0.40;99.70;;;;;;5031460;28;20459;-66
2022/01/16 05:17:47;;;;;;;37.37;12.50;;;-1.10;99.70;;;;;;5030941;28;20443;-64
2022/01/16 05:20:14;;;;;;;38.77;13.63;;;-1.30;99.70;;;;;;5031317;28;20448;-65
2022/01/16 05:22:42;;;;;;;36.87;13.57;;;-1.20;99.70;;;;;;5030715;28;20457;-65
2022/01/16 05:25:12;;;;;;;38.17;14.00;;;-0.90;99.70;;;;;;5031255;28;20823;-64
2022/01/16 05:27:39;;;;;;;35.60;12.70;;;-0.80;99.70;;;;;;5031165;28;20496;-64
2022/01/16 05:30:07;;;;;;;45.80;13.80;;;-0.80;99.70;;;;;;5031018;28;20436;-65
2022/01/16 05:32:34;;;;;;;42.40;14.23;;;-1.10;99.70;;;;;;5031187;28;20443;-67
2022/01/16 05:35:00;;;;;;;43.50;13.63;;;-1.10;99.70;;;;;;5031235;28;20797;-64
2022/01/16 05:37:27;;;;;;;59.53;15.33;;;-1.10;99.70;;;;;;5031251;28;20469;-67
2022/01/16 05:39:56;;;;;;;48.73;14.27;;;-1.00;99.70;;;;;;5030853;28;20440;-67
2022/01/16 05:42:22;;;;;;;85.83;14.40;;;-1.00;99.70;;;;;;5031057;28;20439;-67
2022/01/16 05:44:49;;;;;;;62.37;15.03;;;-1.10;99.70;;;;;;5031296;28;20480;-65
2022/01/16 05:47:16;;;;;;;114.33;15.83;;;-1.30;99.70;;;;;;5030914;28;20472;-65
2022/01/16 05:49:43;;;;;;;72.40;18.23;;;-1.30;99.70;;;;;;5030688;28;20441;-65
2022/01/16 05:52:10;;;;;;;82.20;21.87;;;-1.30;99.70;;;;;;5030973;28;20467;-65
2022/01/16 05:54:37;;;;;;;85.77;17.50;;;-1.40;99.70;;;;;;5030938;28;20904;-65
2022/01/16 05:57:05;;;;;;;88.77;20.37;;;-1.50;99.70;;;;;;5030844;28;20465;-64
2022/01/16 05:59:32;;;;;;;79.60;17.00;;;-1.40;99.70;;;;;;5030507;28;20452;-65
2022/01/16 06:01:59;;;;;;;55.40;14.93;;;-1.40;99.70;;;;;;5030936;28;20448;-64
2022/01/16 06:04:25;;;;;;;66.60;15.33;;;-1.40;99.70;;;;;;5031049;28;20492;-65
2022/01/16 06:06:52;;;;;;;67.53;15.00;;;-1.30;99.70;;;;;;5030729;28;20472;-65
2022/01/16 06:09:19;;;;;;;82.30;15.00;;;-1.40;99.70;;;;;;5030440;28;20448;-65
2022/01/16 06:11:45;;;;;;;52.50;13.93;;;-1.40;99.70;;;;;;5030726;28;20451;-64
2022/01/16 06:14:13;;;;;;;59.73;14.10;;;-1.30;99.70;;;;;;5030821;28;20443;-65
2022/01/16 06:16:40;;;;;;;35.10;12.60;;;-1.40;99.70;;;;;;5030643;28;20461;-64
2022/01/16 06:19:07;;;;;;;52.50;13.30;;;-0.70;99.70;;;;;;5030467;28;20440;-64
2022/01/16 06:21:34;;;;;;;59.83;13.03;;;-0.10;99.70;;;;;;5033990;28;20448;-65
2022/01/16 06:24:00;;;;;;;32.43;11.93;;;-0.20;99.70;;;;;;5034226;28;20506;-66
2022/01/16 06:26:27;;;;;;;37.23;11.90;;;-0.30;99.70;;;;;;5035244;28;20464;-64
2022/01/16 06:28:54;;;;;;;75.50;13.40;;;-0.20;99.70;;;;;;5034170;28;20452;-64
2022/01/16 06:31:22;;;;;;;42.20;12.97;;;-0.40;99.70;;;;;;5034238;28;20440;-64
2022/01/16 06:33:48;;;;;;;49.37;11.20;;;-0.80;99.70;;;;;;5034196;28;20441;-65
2022/01/16 06:36:15;;;;;;;37.20;11.17;;;0.10;99.70;;;;;;5034421;28;20836;-65
2022/01/16 06:38:42;;;;;;;128.27;13.80;;;0.70;99.70;;;;;;5033739;28;20498;-65
2022/01/16 06:41:09;;;;;;;69.83;12.93;;;0.00;99.70;;;;;;5034071;28;20448;-64
2022/01/16 06:43:36;;;;;;;53.47;13.53;;;-0.90;99.70;;;;;;5034130;28;20487;-66
2022/01/16 06:46:02;;;;;;;33.03;11.13;;;-1.10;99.70;;;;;;5033919;28;20960;-67
2022/01/16 06:48:31;;;;;;;38.80;11.53;;;-0.50;99.70;;;;;;5033588;28;20445;-65
2022/01/16 06:50:58;;;;;;;40.73;12.00;;;-0.40;99.70;;;;;;5033848;28;20488;-65
2022/01/16 06:53:24;;;;;;;43.53;12.00;;;-1.10;99.70;;;;;;5033820;28;20455;-64
2022/01/16 06:55:51;;;;;;;49.27;12.90;;;-1.20;99.70;;;;;;5033676;28;20522;-65
2022/01/16 06:58:18;;;;;;;60.50;12.40;;;-1.50;99.70;;;;;;5033280;28;20957;-65
2022/01/16 07:00:45;;;;;;;37.17;11.70;;;-1.30;99.70;;;;;;5033619;28;20448;-65
2022/01/16 07:03:13;;;;;;;43.27;13.73;;;-1.60;99.70;;;;;;5033500;28;20445;-64
2022/01/16 07:05:42;;;;;;;48.47;13.40;;;-1.90;99.70;;;;;;5033478;28;20453;-65
2022/01/16 07:08:08;;;;;;;39.37;11.90;;;-1.90;99.70;;;;;;5032919;28;20465;-65
2022/01/16 07:10:35;;;;;;;65.90;12.67;;;-1.90;99.70;;;;;;5033421;28;20445;-65
2022/01/16 07:13:03;;;;;;;33.07;11.37;;;-1.80;99.70;;;;;;5033325;28;20444;-65
2022/01/16 07:15:30;;;;;;;44.80;12.13;;;-2.00;99.70;;;;;;5033739;28;20818;-64
2022/01/16 07:17:57;;;;;;;111.13;14.80;;;-1.90;99.70;;;;;;5032824;28;20475;-65
2022/01/16 07:20:24;;;;;;;53.10;12.70;;;-1.90;99.70;;;;;;5033235;28;20455;-65
2022/01/16 07:22:52;;;;;;;44.67;12.50;;;-1.60;99.70;;;;;;5033247;28;20503;-64
2022/01/16 07:25:19;;;;;;;45.53;12.60;;;-1.60;99.70;;;;;;5033158;28;20491;-64
2022/01/16 07:27:45;;;;;;;34.87;11.80;;;-1.60;99.70;;;;;;5033107;28;20464;-64
2022/01/16 07:30:12;;;;;;;33.03;10.80;;;-1.60;99.70;;;;;;5033031;28;20472;-65
2022/01/16 07:32:39;;;;;;;65.50;14.40;;;-0.30;99.70;;;;;;5032395;28;20451;-65
2022/01/16 07:35:07;;;;;;;37.30;12.80;;;-0.90;99.70;;;;;;5033086;28;20524;-65
2022/01/16 07:37:34;;;;;;;33.97;13.17;;;-0.80;99.70;;;;;;5032819;28;20473;-65
2022/01/16 07:40:02;;;;;;;46.37;15.17;;;-0.20;99.70;;;;;;5032538;28;20453;-66
2022/01/16 07:42:28;;;;;;;143.90;16.30;;;-0.80;99.70;;;;;;5032886;28;20445;-64
2022/01/16 07:44:55;;;;;;;66.47;15.97;;;-1.40;99.70;;;;;;5032738;28;20508;-65
2022/01/16 07:47:22;;;;;;;94.23;16.07;;;-1.90;99.70;;;;;;5087334;23;20504;-64
2022/01/16 07:49:48;;;;;;;84.23;15.77;;;-2.00;99.70;;;;;;5012270;28;21157;-64
2022/01/16 07:52:15;;;;;;;61.70;16.17;;;-2.10;99.70;;;;;;5012947;28;20447;-64
2022/01/16 07:54:42;;;;;;;46.50;14.33;;;-2.20;99.70;;;;;;5012853;28;20947;-65
2022/01/16 07:57:10;;;;;;;54.40;15.03;;;-2.10;99.70;;;;;;5012741;28;20489;-65
2022/01/16 07:59:36;;;;;;;61.83;15.80;;;-2.00;99.70;;;;;;5012363;28;20446;-65
2022/01/16 08:02:04;;;;;;;39.83;15.23;;;-2.10;99.70;;;;;;5012810;28;20453;-64
2022/01/16 08:04:31;;;;;;;68.10;16.90;;;-1.80;99.70;;;;;;5012688;28;20513;-64
2022/01/16 08:06:57;;;;;;;43.77;15.50;;;-1.50;99.70;;;;;;5012555;28;20457;-65
2022/01/16 08:09:24;;;;;;;38.17;14.63;;;-1.60;99.70;;;;;;5012131;28;20438;-64
2022/01/16 08:11:51;;;;;;;38.43;15.10;;;-1.70;99.70;;;;;;5012596;28;20508;-66
2022/01/16 08:14:19;;;;;;;43.80;14.27;;;-1.50;99.70;;;;;;5012570;28;20955;-64
2022/01/16 08:16:46;;;;;;;46.77;14.97;;;-1.50;99.70;;;;;;5012342;28;20454;-65
2022/01/16 08:19:13;;;;;;;45.33;15.30;;;-1.60;99.70;;;;;;5011909;28;20453;-65
2022/01/16 08:21:39;;;;;;;36.50;14.40;;;-1.30;99.70;;;;;;5012032;28;20828;-64
2022/01/16 08:24:07;;;;;;;37.80;14.83;;;-1.30;99.70;;;;;;5012268;28;20561;-65
2022/01/16 08:26:34;;;;;;;36.43;14.23;;;-1.40;99.70;;;;;;5012281;28;20449;-64
2022/01/16 08:29:01;;;;;;;40.30;15.90;;;-0.30;99.70;;;;;;5011841;28;20465;-64
2022/01/16 08:31:29;;;;;;;39.47;15.80;;;-0.40;99.70;;;;;;5012159;28;20523;-64
2022/01/16 08:33:56;;;;;;;52.90;15.70;;;-0.60;99.70;;;;;;5012102;28;20448;-65
2022/01/16 08:36:22;;;;;;;43.70;14.47;;;-1.00;99.70;;;;;;5012240;28;20452;-64
2022/01/16 08:38:49;;;;;;;37.67;15.30;;;-1.20;99.70;;;;;;5011844;28;20461;-65
2022/01/16 08:41:16;;;;;;;53.93;17.13;;;-1.10;99.70;;;;;;5012019;28;20446;-65
2022/01/16 08:43:42;;;;;;;40.80;14.77;;;-1.10;99.70;;;;;;5011757;28;20450;-66
2022/01/16 08:46:09;;;;;;;51.63;15.87;;;-1.30;99.70;;;;;;5012110;28;20468;-65
2022/01/16 08:48:37;;;;;;;41.13;16.00;;;-1.50;99.70;;;;;;5011561;28;20466;-65
2022/01/16 08:51:04;;;;;;;44.93;15.90;;;-1.40;99.70;;;;;;5011877;28;20446;-67
2022/01/16 08:53:31;;;;;;;38.20;14.27;;;-1.40;99.70;;;;;;5012159;28;20496;-65
2022/01/16 08:55:58;;;;;;;46.40;18.37;;;-1.50;99.70;;;;;;5011777;28;20445;-66
2022/01/16 08:58:24;;;;;;;34.50;14.80;;;-1.10;99.70;;;;;;5011772;28;20473;-65
2022/01/16 09:00:51;;;;;;;37.50;15.27;;;-0.60;99.70;;;;;;5012131;28;20441;-66
2022/01/16 09:03:19;;;;;;;43.80;17.17;;;0.40;99.70;;;;;;5011880;28;20450;-66
2022/01/16 09:05:47;;;;;;;40.70;15.23;;;0.50;99.70;;;;;;5011657;28;20481;-67
2022/01/16 09:08:14;;;;;;;50.13;18.10;;;0.00;99.70;;;;;;5011223;28;20870;-66
2022/01/16 09:10:42;;;;;;;38.90;14.87;;;-0.30;99.70;;;;;;5011665;28;20500;-67
2022/01/16 09:13:11;;;;;;;39.13;14.80;;;-0.20;99.70;;;;;;5011527;28;20453;-67
2022/01/16 09:15:39;;;;;;;44.50;17.83;;;0.00;99.70;;;;;;5011491;28;20442;-67
2022/01/16 09:18:05;;;;;;;52.33;17.33;;;-0.10;99.70;;;;;;5011177;28;20552;-66
2022/01/16 09:20:33;;;;;;;58.73;18.60;;;-0.40;99.70;;;;;;5011883;28;20442;-67
2022/01/16 09:23:01;;;;;;;46.10;16.97;;;-0.70;99.70;;;;;;5011142;28;20445;-67
2022/01/16 09:25:28;;;;;;;44.63;16.10;;;-0.40;99.70;;;;;;5011347;28;20851;-67
2022/01/16 09:27:55;;;;;;;41.60;16.00;;;0.30;99.70;;;;;;5011082;28;20518;-67
2022/01/16 09:30:23;;;;;;;42.70;17.40;;;0.20;99.70;;;;;;5011468;28;20476;-67
2022/01/16 09:32:50;;;;;;;53.43;20.37;;;0.20;99.70;;;;;;5011429;28;20445;-67
2022/01/16 09:35:17;;;;;;;55.13;21.93;;;0.10;99.70;;;;;;5011439;28;20445;-67
2022/01/16 09:37:44;;;;;;;42.77;18.63;;;0.10;99.70;;;;;;5011135;28;20469;-66
2022/01/16 09:40:16;;;;;;;45.10;18.07;;;0.30;99.70;;;;;;5011355;28;20516;-67
2022/01/16 09:42:43;;;;;;;46.73;16.73;;;0.00;99.70;;;;;;5011415;28;20503;-66
2022/01/16 09:45:12;;;;;;;44.10;18.30;;;-0.10;99.70;;;;;;5011287;28;20489;-66
2022/01/16 09:47:39;;;;;;;41.23;17.40;;;0.00;99.70;;;;;;5011056;28;20480;-66
2022/01/16 09:50:07;;;;;;;45.70;18.07;;;0.50;99.70;;;;;;5011101;28;20462;-66
2022/01/16 09:52:36;;;;;;;49.63;19.23;;;0.70;99.70;;;;;;5011287;28;20665;-66
2022/01/16 09:55:04;;;;;;;40.50;17.50;;;0.30;99.70;;;;;;5012824;28;20446;-66
2022/01/16 09:57:32;;;;;;;42.97;18.37;;;0.70;99.70;;;;;;5015089;28;20524;-66
2022/01/16 09:59:59;;;;;;;42.90;17.20;;;0.90;99.70;;;;;;5014671;28;20453;-66
2022/01/16 10:02:26;;;;;;;45.63;19.10;;;0.70;99.70;;;;;;5014907;28;20441;-67
2022/01/16 10:04:53;;;;;;;38.17;16.43;;;0.70;99.70;;;;;;5014922;28;20489;-67
2022/01/16 10:07:20;;;;;;;41.73;17.30;;;0.50;99.70;;;;;;5014384;28;20562;-65
2022/01/16 10:10:06;;;;;;;38.90;17.30;;;0.50;99.70;;;;;;5014513;28;20959;-67
2022/01/16 10:12:35;;;;;;;46.00;19.40;;;0.90;99.70;;;;;;5015016;28;20507;-66
2022/01/16 10:15:17;;;;;;;41.20;17.23;;;0.90;99.70;;;;;;5014757;28;20965;-66
2022/01/16 10:17:44;;;;;;;46.00;17.37;;;1.00;99.70;;;;;;5014741;28;20465;-66
2022/01/16 10:20:11;;;;;;;42.10;17.80;;;1.40;99.70;;;;;;5011778;28;20445;-65
2022/01/16 10:22:39;;;;;;;41.97;17.43;;;1.80;99.70;;;;;;5011943;28;20453;-67
2022/01/16 10:25:07;;;;;;;41.40;18.10;;;1.80;99.70;;;;;;5007445;28;20853;-67
2022/01/16 10:27:38;;;;;;;47.20;19.00;;;1.50;99.70;;;;;;5014202;28;20468;-66
2022/01/16 10:30:07;;;;;;;41.60;16.03;;;1.30;99.70;;;;;;5014482;28;20457;-66
2022/01/16 10:32:37;;;;;;;40.83;16.60;;;2.20;99.70;;;;;;5014237;28;20528;-66
2022/01/16 10:35:14;;;;;;;40.27;17.70;;;1.90;99.70;;;;;;5014567;28;20441;-66
2022/01/16 10:37:43;;;;;;;41.40;17.90;;;1.50;99.70;;;;;;5007074;28;20488;-64
2022/01/16 10:40:14;;;;;;;42.17;17.67;;;1.10;99.70;;;;;;5006222;28;20453;-66
2022/01/16 10:42:48;;;;;;;40.20;17.00;;;1.10;99.70;;;;;;5011651;28;21024;-66
2022/01/16 10:45:16;;;;;;;42.93;17.57;;;1.40;99.70;;;;;;5009861;28;20492;-69
2022/01/16 10:47:45;;;;;;;41.37;18.33;;;1.70;99.70;;;;;;5010164;28;20492;-67
2022/01/16 10:50:17;;;;;;;43.10;18.57;;;2.00;99.70;;;;;;5001441;28;20866;-67
2022/01/16 10:52:56;;;;;;;38.90;16.47;;;2.20;99.70;;;;;;5014456;28;20449;-67
2022/01/16 10:55:31;;;;;;;44.03;18.17;;;2.30;99.70;;;;;;5014137;28;20441;-67
2022/01/16 10:58:05;;;;;;;48.50;19.20;;;2.10;99.70;;;;;;5013527;28;20504;-67
2022/01/16 11:00:32;;;;;;;41.20;17.90;;;1.80;99.70;;;;;;5013428;28;20449;-67
2022/01/16 11:03:02;;;;;;;42.97;17.40;;;1.90;99.70;;;;;;5005368;28;20850;-66
2022/01/16 11:05:34;;;;;;;47.43;18.30;;;2.20;99.70;;;;;;5006720;28;21032;-67
2022/01/16 11:08:03;;;;;;;42.47;18.57;;;2.20;99.70;;;;;;5006865;28;21011;-66
2022/01/16 11:10:31;;;;;;;41.33;17.53;;;2.30;99.70;;;;;;5003915;28;20492;-67
2022/01/16 11:13:02;;;;;;;47.50;19.27;;;2.40;99.70;;;;;;5000783;28;20449;-67
2022/01/16 11:15:34;;;;;;;41.00;17.80;;;2.20;99.70;;;;;;4993660;28;20508;-67
2022/01/16 11:18:01;;;;;;;46.63;19.63;;;2.40;99.70;;;;;;4993124;28;20470;-66
2022/01/16 11:20:33;;;;;;;39.87;17.67;;;2.60;99.70;;;;;;4993251;28;20497;-66
2022/01/16 11:23:14;;;;;;;48.13;19.77;;;2.40;99.70;;;;;;4993782;28;20918;-67
2022/01/16 11:25:44;;;;;;;46.27;18.83;;;2.30;99.70;;;;;;5007807;28;20488;-67
2022/01/16 11:28:13;;;;;;;49.20;20.50;;;2.20;99.70;;;;;;5002261;28;20906;-67
2022/01/16 11:30:46;;;;;;;45.73;19.70;;;2.10;99.70;;;;;;5000743;28;20482;-67
2022/01/16 11:33:13;;;;;;;44.80;19.10;;;1.70;99.70;;;;;;5004430;28;20462;-67
2022/01/16 11:35:43;;;;;;;49.90;19.70;;;1.90;99.70;;;;;;5011176;28;20457;-67
2022/01/16 11:38:11;;;;;;;42.53;18.80;;;2.00;99.70;;;;;;5000631;28;20478;-66
2022/01/16 11:40:44;;;;;;;41.90;18.00;;;1.90;99.70;;;;;;5011376;28;20450;-67
2022/01/16 11:43:17;;;;;;;43.10;18.70;;;2.40;99.70;;;;;;5003247;28;20457;-67
2022/01/16 11:45:51;;;;;;;46.07;20.00;;;2.20;99.70;;;;;;4993262;28;20490;-67
2022/01/16 11:48:20;;;;;;;69.27;24.43;;;2.40;99.70;;;;;;4992736;28;20568;-68
2022/01/16 11:50:47;;;;;;;48.47;19.60;;;2.40;99.70;;;;;;5010081;28;20450;-67
2022/01/16 11:53:54;;;;;;;49.43;19.27;;;3.10;99.70;;;;;;5004496;28;20986;-67
2022/01/16 11:56:49;;;;;;;43.17;18.50;;;3.00;99.70;;;;;;5002770;28;20868;-67
2022/01/16 11:59:18;;;;;;;46.37;19.87;;;2.70;99.70;;;;;;4969183;28;20975;-67
2022/01/16 12:01:48;;;;;;;49.13;20.03;;;2.40;99.70;;;;;;5012405;28;20446;-66
2022/01/16 12:04:48;;;;;;;51.13;20.80;;;2.40;99.70;;;;;;5010139;28;20461;-67
2022/01/16 12:07:46;;;;;;;51.50;21.60;;;2.30;99.70;;;;;;4998047;28;20524;-67
2022/01/16 12:10:35;;;;;;;49.23;21.60;;;2.30;99.70;;;;;;5010844;28;20441;-67
2022/01/16 12:13:01;;;;;;;53.60;22.27;;;2.20;99.70;;;;;;5005298;28;20582;-67
2022/01/16 12:15:28;;;;;;;51.13;20.77;;;2.50;99.70;;;;;;4996817;28;20814;-67
2022/01/16 12:17:57;;;;;;;47.63;19.63;;;2.60;99.70;;;;;;5000187;28;20511;-66
2022/01/16 12:20:26;;;;;;;48.53;20.93;;;2.40;99.70;;;;;;4997974;28;20445;-67
2022/01/16 12:22:56;;;;;;;43.63;18.77;;;2.30;99.70;;;;;;5002054;28;20821;-67
2022/01/16 12:25:24;;;;;;;47.67;20.00;;;2.30;99.70;;;;;;5003074;28;20882;-66
2022/01/16 12:27:54;;;;;;;50.00;19.83;;;2.40;99.70;;;;;;5002635;28;20458;-67
2022/01/16 12:30:51;;;;;;;51.37;21.07;;;3.00;99.70;;;;;;5004221;28;20521;-66
2022/01/16 12:33:27;;;;;;;64.40;25.30;;;2.70;99.70;;;;;;5009291;28;20480;-67
2022/01/16 12:36:14;;;;;;;54.87;22.07;;;2.50;99.70;;;;;;5012100;28;20445;-67
2022/01/16 12:38:47;;;;;;;52.93;21.23;;;2.40;99.70;;;;;;5004529;28;20500;-67
2022/01/16 12:41:16;;;;;;;50.47;19.70;;;2.50;99.70;;;;;;4992516;28;20446;-67
2022/01/16 12:43:47;;;;;;;51.97;20.67;;;2.60;99.70;;;;;;5008348;28;20457;-67
2022/01/16 12:46:16;;;;;;;46.67;20.20;;;2.60;99.70;;;;;;5012073;28;20489;-67
2022/01/16 12:48:45;;;;;;;51.17;20.70;;;2.70;99.70;;;;;;5011268;28;20481;-67
2022/01/16 12:51:15;;;;;;;54.63;21.37;;;2.70;99.70;;;;;;5008928;28;20449;-67
2022/01/16 12:53:43;;;;;;;49.77;21.03;;;2.70;99.70;;;;;;4999073;28;20469;-67
2022/01/16 12:56:18;;;;;;;54.50;21.40;;;2.70;99.70;;;;;;4999722;28;20453;-66
2022/01/16 12:58:45;;;;;;;52.63;20.80;;;2.70;99.70;;;;;;4991600;28;20473;-67
2022/01/16 13:01:12;;;;;;;56.80;21.20;;;2.60;99.70;;;;;;5001275;28;20499;-67
2022/01/16 13:03:42;;;;;;;48.30;19.50;;;2.70;99.70;;;;;;5012079;28;20490;-67
2022/01/16 13:06:17;;;;;;;49.63;18.70;;;2.70;99.70;;;;;;5011460;28;21005;-67
2022/01/16 13:08:58;;;;;;;45.77;17.90;;;2.70;99.70;;;;;;5009208;28;20466;-67
2022/01/16 13:11:28;;;;;;;42.07;17.37;;;2.90;99.70;;;;;;4992782;28;20447;-67
2022/01/16 13:13:55;;;;;;;33.60;12.50;;;3.00;99.70;;;;;;5005771;28;20449;-66
2022/01/16 13:16:23;;;;;;;27.30;12.00;;;3.00;99.70;;;;;;5009920;28;20449;-67
2022/01/16 13:19:11;;;;;;;34.20;13.20;;;3.00;99.70;;;;;;4999871;28;20520;-66
2022/01/16 13:21:56;;;;;;;33.27;13.00;;;3.00;99.70;;;;;;4999080;28;20461;-66